< < Back
Terminal Aerodrome Forecast


Current Version              Previous Versions:   1  2  3  4  5  6  7  8  9  

Terminal Aerodrome Forecast

748
FTUS42 KFFC 260549
TAFFTY
TAF
KFTY 260549Z 2606/2706 14003KT P6SM FEW100 SCT250
     FM261000 12003KT P6SM FEW015
     FM261400 14006KT P6SM FEW035
     FM261800 16007KT P6SM VCSH SCT045 PROB30 2622/2702 6SM -TSRA
      OVC035CB
     FM270300 21002KT 6SM BR VCSH BKN050 BKN100=

Latest METAR

759
SAUS70 KWBC 261200 RRC
MTRFTY
METAR KFTY 261153Z 00000KT 10SM CLR 19/18 A3009 RMK AO2 SLP180 T01940183
10222 20189 51011


USA.gov is the U.S. government's official web portal to all federal, state and local government web resources and services.